createdAt,value
2023-04-02T00:02:14.343Z,11.53
2023-04-02T00:05:39.620Z,11.55
2023-04-02T00:09:04.871Z,11.57
2023-04-02T00:12:30.207Z,11.59
2023-04-02T00:15:55.464Z,11.62
2023-04-02T00:19:20.740Z,11.62
2023-04-02T00:22:46.006Z,11.61
2023-04-02T00:26:11.235Z,11.59
2023-04-02T00:29:36.526Z,11.55
2023-04-02T00:33:01.780Z,11.49
2023-04-02T00:36:26.986Z,11.43
2023-04-02T00:39:52.263Z,11.36
2023-04-02T00:43:17.543Z,11.32
2023-04-02T00:46:42.827Z,11.28
2023-04-02T00:50:08.054Z,11.26
2023-04-02T00:53:33.319Z,11.28
2023-04-02T00:56:58.610Z,11.29
2023-04-02T01:00:23.900Z,11.28
2023-04-02T01:03:49.187Z,11.27
2023-04-02T01:07:14.416Z,11.24
2023-04-02T01:10:39.681Z,11.24
2023-04-02T01:14:04.948Z,11.25
2023-04-02T01:17:30.192Z,11.27
2023-04-02T01:20:55.480Z,11.27
2023-04-02T01:24:20.733Z,11.26
2023-04-02T01:27:45.966Z,11.22
2023-04-02T01:31:11.295Z,10.99
2023-04-02T01:34:36.485Z,10.73
2023-04-02T01:38:01.746Z,10.44
2023-04-02T01:41:27.051Z,10.21
2023-04-02T01:44:52.362Z,10.02
2023-04-02T01:48:17.711Z,9.88
2023-04-02T01:51:42.974Z,9.76
2023-04-02T01:55:08.296Z,9.63
2023-04-02T01:58:33.630Z,9.54
2023-04-02T02:01:58.862Z,9.49
2023-04-02T02:05:24.146Z,9.46
2023-04-02T02:08:49.430Z,9.4
2023-04-02T02:12:14.699Z,9.3
2023-04-02T02:15:39.962Z,9.15
2023-04-02T02:19:05.243Z,9
2023-04-02T02:22:30.508Z,8.86
2023-04-02T02:25:55.768Z,8.77
2023-04-02T02:29:21.057Z,8.71
2023-04-02T02:32:46.347Z,8.66
2023-04-02T02:36:11.634Z,8.6
2023-04-02T02:39:36.858Z,8.57
2023-04-02T02:43:02.126Z,8.55
2023-04-02T02:46:27.400Z,8.53
2023-04-02T02:49:52.681Z,8.54
2023-04-02T02:53:17.949Z,8.49
2023-04-02T02:56:43.209Z,8.37
2023-04-02T03:00:08.421Z,8.26
2023-04-02T03:03:33.767Z,8.24
2023-04-02T03:06:58.864Z,8.21
2023-04-02T03:10:24.118Z,8.12
2023-04-02T03:13:49.394Z,8.02
2023-04-02T03:17:14.620Z,7.91
2023-04-02T03:20:39.914Z,7.83
2023-04-02T03:24:05.155Z,7.75
2023-04-02T03:27:30.372Z,7.69
2023-04-02T03:30:55.618Z,7.66
2023-04-02T03:34:20.848Z,7.66
2023-04-02T03:37:46.118Z,7.66
2023-04-02T03:41:11.355Z,7.63
2023-04-02T03:44:36.633Z,7.59
2023-04-02T03:48:01.872Z,7.56
2023-04-02T03:51:27.121Z,7.58
2023-04-02T03:54:53.443Z,7.64
2023-04-02T03:58:17.618Z,7.65
2023-04-02T04:01:42.920Z,7.63
2023-04-02T04:05:08.128Z,7.55
2023-04-02T04:08:33.383Z,7.44
2023-04-02T04:11:58.629Z,7.37
2023-04-02T04:15:23.899Z,7.31
2023-04-02T04:18:49.164Z,7.22
2023-04-02T04:22:14.429Z,7.12
2023-04-02T04:25:39.676Z,7.13
2023-04-02T04:29:04.978Z,7.16
2023-04-02T04:32:30.184Z,7.15
2023-04-02T04:35:55.530Z,7.17
2023-04-02T04:39:20.730Z,7.13
2023-04-02T04:42:45.978Z,7.11
2023-04-02T04:46:11.292Z,7.1
2023-04-02T04:49:36.495Z,7.06
2023-04-02T04:53:01.770Z,6.94
2023-04-02T04:56:27.012Z,6.85
2023-04-02T04:59:52.254Z,6.81
2023-04-02T05:03:17.526Z,6.75
2023-04-02T05:06:42.748Z,6.68
2023-04-02T05:10:08.012Z,6.64
2023-04-02T05:13:33.292Z,6.6
2023-04-02T05:16:58.524Z,6.59
2023-04-02T05:20:23.794Z,6.6
2023-04-02T05:23:49.022Z,6.58
2023-04-02T05:27:14.276Z,6.54
2023-04-02T05:30:39.559Z,6.49
2023-04-02T05:34:04.864Z,6.46
2023-04-02T05:37:30.125Z,6.44
2023-04-02T05:40:55.479Z,6.43
2023-04-02T05:44:20.761Z,6.38
2023-04-02T05:47:46.088Z,6.3
2023-04-02T05:51:11.309Z,6.28
2023-04-02T05:54:36.556Z,6.23
2023-04-02T05:58:21.880Z,6.21
2023-04-02T06:01:27.084Z,6.13
2023-04-02T06:04:52.357Z,6.12
2023-04-02T06:08:17.606Z,6.13
2023-04-02T06:11:42.885Z,6.08
2023-04-02T06:15:08.088Z,6.03
2023-04-02T06:18:33.336Z,6.04
2023-04-02T06:21:58.632Z,6.04
2023-04-02T06:25:23.884Z,6.05
2023-04-02T06:28:49.158Z,5.99
2023-04-02T06:32:14.384Z,5.95
2023-04-02T06:35:39.635Z,5.93
2023-04-02T06:39:04.868Z,5.95
2023-04-02T06:42:30.166Z,5.91
2023-04-02T06:45:55.440Z,5.89
2023-04-02T06:49:20.672Z,5.89
2023-04-02T06:52:45.888Z,5.9
2023-04-02T06:56:11.147Z,5.92
2023-04-02T06:59:36.389Z,5.88
2023-04-02T07:03:01.678Z,5.87
2023-04-02T07:06:26.904Z,5.81
2023-04-02T07:09:52.130Z,5.72
2023-04-02T07:13:17.379Z,5.71
2023-04-02T07:16:42.643Z,5.73
2023-04-02T07:20:07.963Z,5.73
2023-04-02T07:23:33.217Z,5.68
2023-04-02T07:26:58.464Z,5.68
2023-04-02T07:30:23.742Z,5.63
2023-04-02T07:33:49.013Z,5.58
2023-04-02T07:37:14.284Z,5.52
2023-04-02T07:40:39.645Z,5.47
2023-04-02T07:44:08.193Z,5.43
2023-04-02T07:47:33.449Z,5.41
2023-04-02T07:50:58.736Z,5.41
2023-04-02T07:54:24.022Z,5.47
2023-04-02T07:57:49.277Z,5.51
2023-04-02T08:01:14.528Z,5.54
2023-04-02T08:04:40.380Z,5.55
2023-04-02T08:08:05.632Z,5.46
2023-04-02T08:11:31.873Z,5.37
2023-04-02T08:14:56.150Z,5.33
2023-04-02T08:18:21.452Z,5.31
2023-04-02T08:21:46.680Z,5.32
2023-04-02T08:25:11.946Z,5.37
2023-04-02T08:28:37.190Z,5.41
2023-04-02T08:32:02.400Z,5.41
2023-04-02T08:35:27.652Z,5.37
2023-04-02T08:38:52.893Z,5.35
2023-04-02T08:42:18.134Z,5.29
2023-04-02T08:45:43.512Z,5.25
2023-04-02T08:49:08.647Z,5.18
2023-04-02T08:52:33.882Z,5.12
2023-04-02T08:55:59.108Z,5.15
2023-04-02T08:59:24.370Z,5.22
2023-04-02T09:02:49.622Z,5.25
2023-04-02T09:06:16.528Z,5.19
2023-04-02T09:09:40.040Z,5.15
2023-04-02T09:13:05.268Z,5.11
2023-04-02T09:16:30.505Z,5.06
2023-04-02T09:19:55.773Z,5.04
2023-04-02T09:23:20.999Z,5.11
2023-04-02T09:26:46.249Z,5.07
2023-04-02T09:30:11.524Z,5.08
2023-04-02T09:33:36.718Z,5.1
2023-04-02T09:37:01.980Z,5.11
2023-04-02T09:40:27.216Z,5.13
2023-04-02T09:43:52.461Z,5.08
2023-04-02T09:47:17.713Z,5.06
2023-04-02T09:50:42.937Z,5.03
2023-04-02T09:54:08.217Z,5
2023-04-02T09:57:33.483Z,4.99
2023-04-02T10:00:58.629Z,5.03
2023-04-02T10:04:25.861Z,5.05
2023-04-02T10:07:49.075Z,5.05
2023-04-02T10:11:14.352Z,5.06
2023-04-02T10:14:39.549Z,5.09
2023-04-02T10:18:04.764Z,5.07
2023-04-02T10:21:30.006Z,5
2023-04-02T10:24:55.243Z,4.9
2023-04-02T10:28:20.529Z,4.8
2023-04-02T10:31:45.703Z,4.73
2023-04-02T10:35:10.939Z,4.7
2023-04-02T10:38:36.167Z,4.65
2023-04-02T10:42:01.379Z,4.62
2023-04-02T10:45:26.646Z,4.53
2023-04-02T10:48:51.837Z,4.5
2023-04-02T10:52:17.062Z,4.45
2023-04-02T10:55:42.263Z,4.41
2023-04-02T10:59:07.510Z,4.37
2023-04-02T11:02:32.805Z,4.33
2023-04-02T11:06:00.214Z,4.35
2023-04-02T11:09:25.451Z,4.38
2023-04-02T11:12:50.707Z,4.38
2023-04-02T11:16:15.957Z,4.4
2023-04-02T11:19:41.302Z,4.45
2023-04-02T11:23:06.503Z,4.45
2023-04-02T11:26:31.717Z,4.43
2023-04-02T11:29:56.943Z,4.43
2023-04-02T11:33:30.153Z,4.48
2023-04-02T11:36:47.445Z,4.52
2023-04-02T11:40:12.648Z,4.54
2023-04-02T11:43:37.879Z,4.58
2023-04-02T11:47:03.131Z,4.6
2023-04-02T11:50:28.378Z,4.63
2023-04-02T11:53:53.648Z,4.71
2023-04-02T11:57:20.997Z,4.82
2023-04-02T12:00:44.272Z,4.82
2023-04-02T12:04:09.534Z,4.79
2023-04-02T12:07:34.772Z,4.8
2023-04-02T12:11:00.020Z,4.75
2023-04-02T12:14:25.256Z,4.65
2023-04-02T12:17:50.540Z,4.64
2023-04-02T12:21:15.813Z,4.67
2023-04-02T12:24:41.008Z,4.68
2023-04-02T12:28:06.299Z,4.69
2023-04-02T12:31:31.511Z,4.71
2023-04-02T12:34:56.741Z,4.78
2023-04-02T12:38:21.972Z,4.87
2023-04-02T12:41:47.186Z,4.87
2023-04-02T12:45:12.419Z,4.83
2023-04-02T12:48:37.617Z,4.8
2023-04-02T12:52:02.838Z,4.78
2023-04-02T12:55:28.087Z,4.74
2023-04-02T12:58:53.296Z,4.71
2023-04-02T13:02:18.534Z,4.7
2023-04-02T13:05:43.731Z,4.69
2023-04-02T13:09:08.965Z,4.72
2023-04-02T13:12:34.183Z,4.76
2023-04-02T13:15:59.449Z,4.78
2023-04-02T13:19:24.675Z,4.75
2023-04-02T13:22:49.887Z,4.69
2023-04-02T13:26:15.121Z,4.62
2023-04-02T13:29:40.358Z,4.6
2023-04-02T13:33:05.592Z,4.58
2023-04-02T13:36:30.960Z,4.56
2023-04-02T13:39:56.056Z,4.51
2023-04-02T13:43:21.298Z,4.48
2023-04-02T13:46:46.522Z,4.48
2023-04-02T13:50:11.759Z,4.48
2023-04-02T13:53:37.048Z,4.5
2023-04-02T13:57:02.233Z,4.52
2023-04-02T14:00:27.419Z,4.53
2023-04-02T14:03:52.669Z,4.55
2023-04-02T14:07:17.908Z,4.63
2023-04-02T14:10:43.781Z,4.74
2023-04-02T14:14:08.477Z,4.79
2023-04-02T14:17:33.741Z,4.75
2023-04-02T14:20:59.072Z,4.66
2023-04-02T14:24:24.375Z,4.59
2023-04-02T14:27:49.641Z,4.54
2023-04-02T14:31:14.924Z,4.59
2023-04-02T14:34:40.167Z,4.61
2023-04-02T14:38:05.447Z,4.59
2023-04-02T14:41:30.718Z,4.6
2023-04-02T14:44:56.040Z,4.56
2023-04-02T14:48:21.253Z,4.53
2023-04-02T14:51:46.474Z,4.47
2023-04-02T14:55:11.711Z,4.44
2023-04-02T14:58:36.964Z,4.44
2023-04-02T15:02:02.232Z,4.45
2023-04-02T15:05:27.384Z,4.43
2023-04-02T15:40:03.740Z,2.61
2023-04-02T15:43:28.920Z,3.61
2023-04-02T15:46:54.153Z,3.82
2023-04-02T15:50:19.348Z,3.99
2023-04-02T15:53:44.555Z,4.17
2023-04-02T15:57:09.819Z,4.35
2023-04-02T16:00:35.155Z,4.44
2023-04-02T16:04:00.247Z,4.49
2023-04-02T16:07:25.428Z,4.58
2023-04-02T16:10:50.658Z,4.65
2023-04-02T16:14:15.905Z,4.69
2023-04-02T16:17:41.093Z,4.77
2023-04-02T16:21:06.334Z,4.79
2023-04-02T16:24:31.557Z,4.82
2023-04-02T16:27:56.771Z,4.87
2023-04-02T16:31:22.269Z,4.92
2023-04-02T16:34:47.409Z,4.96
2023-04-02T16:38:12.720Z,4.94
2023-04-02T16:41:37.950Z,4.9
2023-04-02T16:45:03.172Z,4.9
2023-04-02T16:48:28.462Z,4.96
2023-04-02T16:51:53.634Z,4.96
2023-04-02T16:55:18.845Z,4.94
2023-04-02T16:58:44.083Z,4.93
2023-04-02T17:02:09.351Z,4.95
2023-04-02T17:05:34.675Z,5
2023-04-02T17:08:59.932Z,4.96
2023-04-02T17:12:25.224Z,4.95
2023-04-02T17:15:50.729Z,4.98
2023-04-02T17:19:15.936Z,5.06
2023-04-02T17:22:41.290Z,5.12
2023-04-02T17:26:06.521Z,5.16
2023-04-02T17:29:31.961Z,5.22
2023-04-02T17:32:57.349Z,5.28
2023-04-02T17:36:22.524Z,5.33
2023-04-02T17:39:47.829Z,5.35
2023-04-02T17:43:13.028Z,5.36
2023-04-02T17:46:38.309Z,5.38
2023-04-02T17:50:03.604Z,5.35
2023-04-02T17:53:28.862Z,5.3
2023-04-02T17:56:54.200Z,5.32
2023-04-02T18:00:19.342Z,5.3
2023-04-02T18:03:44.603Z,5.29
2023-04-02T18:07:09.841Z,5.27
2023-04-02T18:10:35.331Z,5.29
2023-04-02T18:14:00.357Z,5.26
2023-04-02T18:17:25.636Z,5.23
2023-04-02T18:20:50.809Z,5.18
2023-04-02T18:24:16.068Z,5.12
2023-04-02T18:27:41.354Z,5.1
2023-04-02T18:31:06.638Z,5.05
2023-04-02T18:34:31.868Z,5.04
2023-04-02T18:37:57.230Z,5.09
2023-04-02T18:41:22.401Z,5.11
2023-04-02T18:44:47.604Z,5.06
2023-04-02T18:48:12.901Z,5.05
2023-04-02T18:51:38.091Z,5.03
2023-04-02T18:55:03.335Z,5.02
2023-04-02T18:58:31.399Z,5.01
2023-04-02T19:01:57.988Z,5.02
2023-04-02T19:05:23.316Z,5.01
2023-04-02T19:08:48.604Z,5.01
2023-04-02T19:12:13.903Z,5.03
2023-04-02T19:15:39.561Z,5.02
2023-04-02T19:19:04.508Z,5.04
2023-04-02T19:22:29.841Z,5.03
2023-04-02T19:25:55.096Z,5.07
2023-04-02T19:29:20.421Z,5.04
2023-04-02T19:32:45.726Z,5
2023-04-02T19:36:11.056Z,5.01
2023-04-02T19:39:36.314Z,5.02
2023-04-02T19:43:01.590Z,4.96
2023-04-02T19:46:26.920Z,4.95
2023-04-02T19:49:52.221Z,4.93
2023-04-02T19:53:17.544Z,4.9
2023-04-02T19:56:42.817Z,4.95
2023-04-02T20:00:08.118Z,4.97
2023-04-02T20:03:33.416Z,5
2023-04-02T20:06:58.696Z,5.01
2023-04-02T20:10:23.966Z,5.04
2023-04-02T20:13:49.289Z,5.07
2023-04-02T20:17:14.562Z,5.14
2023-04-02T20:20:39.856Z,5.24
2023-04-02T20:24:05.117Z,5.28
2023-04-02T20:27:30.405Z,5.37
2023-04-02T20:30:55.716Z,5.43
2023-04-02T20:34:21.175Z,5.49
2023-04-02T20:37:46.311Z,5.5
2023-04-02T20:41:11.597Z,5.53
2023-04-02T20:44:36.919Z,5.52
2023-04-02T20:48:02.263Z,5.51
2023-04-02T20:51:27.559Z,5.51
2023-04-02T20:54:52.891Z,5.5
2023-04-02T20:58:18.157Z,5.5
2023-04-02T21:01:43.499Z,5.5
2023-04-02T21:05:08.940Z,5.52
2023-04-02T21:08:34.133Z,5.55
2023-04-02T21:11:59.390Z,5.61
2023-04-02T21:15:24.711Z,5.73
2023-04-02T21:18:50.012Z,5.79
2023-04-02T21:22:15.333Z,5.86
2023-04-02T21:25:40.632Z,5.92
2023-04-02T21:29:05.919Z,5.95
2023-04-02T21:32:31.214Z,5.98
2023-04-02T21:35:56.540Z,5.97
2023-04-02T21:39:21.846Z,5.98
2023-04-02T21:42:47.123Z,6.01
2023-04-02T21:46:12.509Z,6
2023-04-02T21:49:37.812Z,5.97
2023-04-02T21:53:03.135Z,5.92
2023-04-02T21:56:28.489Z,5.9
2023-04-02T21:59:53.823Z,5.93
2023-04-02T22:03:25.376Z,5.9
2023-04-02T22:06:44.449Z,5.8
2023-04-02T22:10:09.754Z,5.76
2023-04-02T22:13:35.126Z,5.74
2023-04-02T22:17:00.517Z,5.72
2023-04-02T22:20:25.692Z,5.76
2023-04-02T22:23:50.978Z,5.77
2023-04-02T22:27:16.259Z,5.74
2023-04-02T22:30:41.626Z,5.66
2023-04-02T22:34:06.844Z,5.59
2023-04-02T22:37:32.111Z,5.56
2023-04-02T22:40:57.371Z,5.56
2023-04-02T22:44:23.266Z,5.53
2023-04-02T22:47:48.660Z,5.47
2023-04-02T22:51:13.887Z,5.39
2023-04-02T22:54:39.197Z,5.3
2023-04-02T22:58:04.533Z,5.26
2023-04-02T23:01:29.880Z,5.27
2023-04-02T23:04:55.215Z,5.32
2023-04-02T23:08:20.499Z,5.34
2023-04-02T23:11:45.760Z,5.35
2023-04-02T23:15:11.089Z,5.32
2023-04-02T23:18:36.401Z,5.33
2023-04-02T23:22:01.711Z,5.34
2023-04-02T23:25:27.030Z,5.36
2023-04-02T23:28:52.372Z,5.37
2023-04-02T23:32:17.639Z,5.38
2023-04-02T23:35:42.950Z,5.36
2023-04-02T23:39:08.257Z,5.35
2023-04-02T23:42:33.518Z,5.25
2023-04-02T23:45:58.787Z,5.19
2023-04-02T23:49:24.058Z,5.14
2023-04-02T23:52:49.333Z,5.11
2023-04-02T23:56:14.619Z,5.02
2023-04-02T23:59:39.899Z,4.98
